createdAt,value
2023-04-10T00:00:53.119Z,5.60
2023-04-10T00:03:20.842Z,5.61
2023-04-10T00:05:48.585Z,5.66
2023-04-10T00:08:17.620Z,5.67
2023-04-10T00:10:45.226Z,5.66
2023-04-10T00:13:12.836Z,5.70
2023-04-10T00:15:40.708Z,5.69
2023-04-10T00:18:08.577Z,5.67
2023-04-10T00:20:36.634Z,5.69
2023-04-10T00:23:04.212Z,5.69
2023-04-10T00:25:33.279Z,5.70
2023-04-10T00:28:00.894Z,5.72
2023-04-10T00:30:28.951Z,5.71
2023-04-10T00:32:56.639Z,5.72
2023-04-10T00:35:24.265Z,5.73
2023-04-10T00:37:52.421Z,5.74
2023-04-10T00:40:20.081Z,5.75
2023-04-10T00:42:49.124Z,5.80
2023-04-10T00:45:16.743Z,5.81
2023-04-10T00:47:44.510Z,5.78
2023-04-10T00:50:12.553Z,5.79
2023-04-10T00:52:40.240Z,5.80
2023-04-10T00:55:09.110Z,5.82
2023-04-10T00:57:37.062Z,5.83
2023-04-10T01:00:07.001Z,5.85
2023-04-10T01:02:34.708Z,5.87
2023-04-10T01:05:02.509Z,5.91
2023-04-10T01:07:43.024Z,5.91
2023-04-10T01:10:18.849Z,5.92
2023-04-10T01:12:57.775Z,5.95
2023-04-10T01:15:29.552Z,5.97
2023-04-10T01:18:05.645Z,5.98
2023-04-10T01:20:35.785Z,6.01
2023-04-10T01:23:33.119Z,6.11
2023-04-10T01:26:04.454Z,6.06
2023-04-10T01:28:57.276Z,6.08
2023-04-10T01:31:31.251Z,6.10
2023-04-10T01:34:04.358Z,6.11
2023-04-10T01:36:49.857Z,6.12
2023-04-10T01:39:20.306Z,6.14
2023-04-10T01:41:50.996Z,6.17
2023-04-10T01:44:22.554Z,6.19
2023-04-10T01:46:51.472Z,6.20
2023-04-10T01:49:20.120Z,6.24
2023-04-10T01:51:48.784Z,6.26
2023-04-10T01:54:18.051Z,6.27
2023-04-10T01:56:45.938Z,6.30
2023-04-10T01:59:13.709Z,6.32
2023-04-10T02:01:42.742Z,6.34
2023-04-10T02:04:10.478Z,6.38
2023-04-10T02:06:44.795Z,6.37
2023-04-10T02:09:19.119Z,6.39
2023-04-10T02:11:52.922Z,6.42
2023-04-10T02:14:23.064Z,6.41
2023-04-10T02:16:56.349Z,6.42
2023-04-10T02:19:26.102Z,6.38
2023-04-10T02:21:54.618Z,6.41
2023-04-10T02:24:22.806Z,6.39
2023-04-10T02:26:51.897Z,6.41
2023-04-10T02:29:20.380Z,6.40
2023-04-10T02:31:48.370Z,6.42
2023-04-10T02:34:17.337Z,6.38
2023-04-10T02:36:45.105Z,6.34
2023-04-10T02:39:12.742Z,6.27
2023-04-10T02:41:40.330Z,6.29
2023-04-10T02:44:07.949Z,6.29
2023-04-10T02:46:35.722Z,6.27
2023-04-10T02:49:04.355Z,6.24
2023-04-10T02:51:37.032Z,6.08
2023-04-10T02:54:04.736Z,6.00
2023-04-10T02:56:34.734Z,5.98
2023-04-10T02:59:02.329Z,5.92
2023-04-10T03:01:30.807Z,5.88
2023-04-10T03:03:59.027Z,5.85
2023-04-10T03:06:27.379Z,5.81
2023-04-10T03:08:56.651Z,5.81
2023-04-10T03:11:24.303Z,5.77
2023-04-10T03:13:52.240Z,5.76
2023-04-10T03:16:20.687Z,5.75
2023-04-10T03:18:48.614Z,5.74
2023-04-10T03:21:16.462Z,5.73
2023-04-10T03:23:44.036Z,5.73
2023-04-10T03:26:13.000Z,5.72
2023-04-10T03:28:41.378Z,5.71
2023-04-10T03:31:09.683Z,5.70
2023-04-10T03:33:37.462Z,5.68
2023-04-10T03:36:05.738Z,5.67
2023-04-10T03:38:33.484Z,5.64
2023-04-10T03:41:01.179Z,5.64
2023-04-10T03:43:30.608Z,5.61
2023-04-10T03:45:58.229Z,5.57
2023-04-10T03:48:28.047Z,5.55
2023-04-10T03:50:55.993Z,5.54
2023-04-10T03:53:23.714Z,5.50
2023-04-10T03:55:52.401Z,5.46
2023-04-10T03:58:20.408Z,5.45
2023-04-10T04:00:49.401Z,5.43
2023-04-10T04:03:17.380Z,5.42
2023-04-10T04:05:45.223Z,5.40
2023-04-10T04:08:14.030Z,5.39
2023-04-10T04:10:41.704Z,5.38
2023-04-10T04:13:09.324Z,5.36
2023-04-10T04:15:37.072Z,5.35
2023-04-10T04:18:06.268Z,5.35
2023-04-10T04:20:34.173Z,5.34
2023-04-10T04:23:01.803Z,5.33
2023-04-10T04:25:29.448Z,5.34
2023-04-10T04:27:57.568Z,5.33
2023-04-10T04:30:25.266Z,5.36
2023-04-10T04:32:52.998Z,5.37
2023-04-10T04:35:23.037Z,5.40
2023-04-10T04:37:50.716Z,5.44
2023-04-10T04:40:18.399Z,5.49
2023-04-10T04:42:46.131Z,5.50
2023-04-10T04:45:14.212Z,5.56
2023-04-10T04:47:41.871Z,5.64
2023-04-10T04:50:11.093Z,5.67
2023-04-10T04:52:40.067Z,5.76
2023-04-10T04:55:08.714Z,5.85
2023-04-10T04:57:36.318Z,5.96
2023-04-10T05:00:04.423Z,6.08
2023-04-10T05:02:32.166Z,6.21
2023-04-10T05:05:00.394Z,6.41
2023-04-10T05:07:28.205Z,6.57
2023-04-10T05:09:57.210Z,6.74
2023-04-10T05:12:24.846Z,6.87
2023-04-10T05:14:52.515Z,7.10
2023-04-10T05:17:20.405Z,7.59
2023-04-10T05:19:48.048Z,8.24
2023-04-10T05:22:16.920Z,8.87
2023-04-10T05:24:46.316Z,9.33
2023-04-10T05:27:15.359Z,9.81
2023-04-10T05:29:42.980Z,10.01
2023-04-10T05:32:10.930Z,10.03
2023-04-10T05:34:38.519Z,10.47
2023-04-10T05:37:06.265Z,10.83
2023-04-10T05:39:33.912Z,11.26
2023-04-10T05:42:02.002Z,11.52
2023-04-10T05:44:31.874Z,12.05
2023-04-10T05:46:59.491Z,12.48
2023-04-10T05:49:27.486Z,12.88
2023-04-10T05:51:55.143Z,12.99
2023-04-10T05:54:22.849Z,13.31
2023-04-10T05:56:50.543Z,13.43
2023-04-10T05:59:18.189Z,13.29
2023-04-10T06:01:47.619Z,13.37
2023-04-10T06:04:15.509Z,13.51
2023-04-10T06:06:43.779Z,13.32
2023-04-10T06:09:11.378Z,13.26
2023-04-10T06:11:39.056Z,12.90
2023-04-10T06:14:06.678Z,12.73
2023-04-10T06:16:34.572Z,12.64
2023-04-10T06:19:04.451Z,12.52
2023-04-10T06:21:32.117Z,12.61
2023-04-10T06:23:59.810Z,12.35
2023-04-10T06:26:27.417Z,12.32
2023-04-10T06:28:55.383Z,12.34
2023-04-10T06:31:23.518Z,12.26
2023-04-10T06:33:51.518Z,12.17
2023-04-10T06:36:20.634Z,12.21
2023-04-10T06:38:48.387Z,12.15
2023-04-10T06:41:16.303Z,12.30
2023-04-10T06:43:43.954Z,12.50
2023-04-10T06:46:11.736Z,12.60
2023-04-10T06:48:39.874Z,12.65
2023-04-10T06:51:08.198Z,12.63
2023-04-10T06:53:37.198Z,12.81
2023-04-10T06:56:05.286Z,13.01
2023-04-10T06:58:33.088Z,13.31
2023-04-10T07:01:04.323Z,13.53
2023-04-10T07:03:32.484Z,13.60
2023-04-10T07:06:01.954Z,13.89
2023-04-10T07:08:29.735Z,14.20
2023-04-10T07:10:59.016Z,14.38
2023-04-10T07:13:26.775Z,14.59
2023-04-10T07:15:54.471Z,14.39
2023-04-10T07:18:22.192Z,14.66
2023-04-10T07:20:50.084Z,14.76
2023-04-10T07:23:17.679Z,14.67
2023-04-10T07:25:45.675Z,14.70
2023-04-10T07:28:14.657Z,14.82
2023-04-10T07:30:42.294Z,14.58
2023-04-10T07:33:10.063Z,14.61
2023-04-10T07:35:37.827Z,14.69
2023-04-10T07:38:05.513Z,14.67
2023-04-10T07:40:33.129Z,14.35
2023-04-10T07:43:00.801Z,14.15
2023-04-10T07:45:29.870Z,14.01
2023-04-10T07:47:59.625Z,14.02
2023-04-10T07:50:27.511Z,14.24
2023-04-10T07:52:55.225Z,14.26
2023-04-10T07:55:23.200Z,14.59
2023-04-10T07:57:52.213Z,14.91
2023-04-10T08:00:20.221Z,15.22
2023-04-10T08:02:49.297Z,15.28
2023-04-10T08:05:17.188Z,15.51
2023-04-10T08:07:45.735Z,15.61
2023-04-10T08:10:13.492Z,15.77
2023-04-10T08:12:41.135Z,15.60
2023-04-10T08:15:09.442Z,15.39
2023-04-10T08:17:37.078Z,15.17
2023-04-10T08:20:07.253Z,15.11
2023-04-10T08:22:34.987Z,15.00
2023-04-10T08:25:02.746Z,14.90
2023-04-10T08:27:31.026Z,14.82
2023-04-10T08:29:58.640Z,14.96
2023-04-10T08:32:27.612Z,15.03
2023-04-10T08:34:55.419Z,15.18
2023-04-10T08:37:24.420Z,15.38
2023-04-10T08:39:51.973Z,15.50
2023-04-10T08:42:19.932Z,15.56
2023-04-10T08:44:49.971Z,15.40
2023-04-10T08:47:21.573Z,15.44
2023-04-10T08:49:54.820Z,15.51
2023-04-10T08:52:26.049Z,15.45
2023-04-10T08:54:55.985Z,15.40
2023-04-10T08:57:26.878Z,15.58
2023-04-10T08:59:54.642Z,15.68
2023-04-10T09:02:23.231Z,15.86
2023-04-10T09:04:54.584Z,15.89
2023-04-10T09:07:24.095Z,15.92
2023-04-10T09:09:51.703Z,15.98
2023-04-10T09:12:19.379Z,16.13
2023-04-10T09:14:49.730Z,16.14
2023-04-10T09:17:19.564Z,16.27
2023-04-10T09:19:48.457Z,16.41
2023-04-10T09:22:17.440Z,16.55
2023-04-10T09:24:48.236Z,16.73
2023-04-10T09:27:31.293Z,16.89
2023-04-10T09:29:59.364Z,16.94
2023-04-10T09:32:38.554Z,17.04
2023-04-10T09:35:07.250Z,17.14
2023-04-10T09:37:35.700Z,17.22
2023-04-10T09:40:05.890Z,17.44
2023-04-10T09:42:34.515Z,17.36
2023-04-10T09:45:02.484Z,17.35
2023-04-10T09:47:30.822Z,17.61
2023-04-10T09:50:00.666Z,17.57
2023-04-10T09:52:30.216Z,17.62
2023-04-10T09:54:59.609Z,17.58
2023-04-10T09:57:31.222Z,17.68
2023-04-10T10:00:01.252Z,17.84
2023-04-10T10:02:31.418Z,17.92
2023-04-10T10:05:01.331Z,18.11
2023-04-10T10:07:30.783Z,18.37
2023-04-10T10:09:59.577Z,18.35
2023-04-10T10:12:35.181Z,18.45
2023-04-10T10:15:10.146Z,18.44
2023-04-10T10:17:44.526Z,18.70
2023-04-10T10:20:14.798Z,18.53
2023-04-10T10:22:43.187Z,18.45
2023-04-10T10:25:11.588Z,18.73
2023-04-10T10:27:42.659Z,18.72
2023-04-10T10:30:25.314Z,18.75
2023-04-10T10:32:58.711Z,18.72
2023-04-10T10:35:29.700Z,18.89
2023-04-10T10:38:01.276Z,18.87
2023-04-10T10:40:33.305Z,18.73
2023-04-10T10:43:09.372Z,18.84
2023-04-10T10:45:45.202Z,18.95
2023-04-10T10:48:13.042Z,18.89
2023-04-10T10:50:58.745Z,18.89
2023-04-10T10:53:47.478Z,18.94
2023-04-10T10:56:37.240Z,18.91
2023-04-10T10:59:06.274Z,18.82
2023-04-10T11:01:34.003Z,18.94
2023-04-10T11:04:02.282Z,18.72
2023-04-10T11:06:53.070Z,19.22
2023-04-10T11:09:48.025Z,18.94
2023-04-10T11:12:16.366Z,19.00
2023-04-10T11:14:47.111Z,18.78
2023-04-10T11:17:34.759Z,18.83
2023-04-10T11:20:03.449Z,18.61
2023-04-10T11:22:31.273Z,18.85
2023-04-10T11:25:01.807Z,18.98
2023-04-10T11:27:48.664Z,18.89
2023-04-10T11:30:31.742Z,19.00
2023-04-10T11:33:00.516Z,19.11
2023-04-10T11:35:28.733Z,19.40
2023-04-10T11:38:12.802Z,19.68
2023-04-10T11:40:56.216Z,19.89
2023-04-10T11:43:24.053Z,19.91
2023-04-10T11:46:00.922Z,20.00
2023-04-10T11:48:29.293Z,19.92
2023-04-10T11:50:57.118Z,19.92
2023-04-10T11:53:24.766Z,19.93
2023-04-10T11:55:52.405Z,19.99
2023-04-10T11:58:24.219Z,20.24
2023-04-10T12:01:04.157Z,20.32
2023-04-10T12:03:39.224Z,20.31
2023-04-10T12:06:12.495Z,20.29
2023-04-10T12:08:41.684Z,20.23
2023-04-10T12:11:11.206Z,20.17
2023-04-10T12:13:39.371Z,19.95
2023-04-10T12:16:10.697Z,19.92
2023-04-10T12:18:39.148Z,19.90
2023-04-10T12:21:08.600Z,19.78
2023-04-10T12:23:39.089Z,19.70
2023-04-10T12:26:09.977Z,19.78
2023-04-10T12:28:38.488Z,19.95
2023-04-10T12:31:06.837Z,19.97
2023-04-10T12:33:36.092Z,20.00
2023-04-10T12:36:04.054Z,19.79
2023-04-10T12:38:41.892Z,19.61
2023-04-10T12:41:11.215Z,19.42
2023-04-10T12:43:40.161Z,19.37
2023-04-10T12:46:09.764Z,19.40
2023-04-10T12:48:38.717Z,19.44
2023-04-10T12:51:06.758Z,19.43
2023-04-10T12:53:44.816Z,19.39
2023-04-10T12:56:13.534Z,19.32
2023-04-10T12:58:42.677Z,19.52
2023-04-10T13:01:11.112Z,19.37
2023-04-10T13:03:40.438Z,19.51
2023-04-10T13:06:09.250Z,19.47
2023-04-10T13:08:37.354Z,19.55
2023-04-10T13:11:05.811Z,19.45
2023-04-10T13:13:33.488Z,19.63
2023-04-10T13:16:01.302Z,19.59
2023-04-10T13:18:29.293Z,19.70
2023-04-10T13:20:58.196Z,19.68
2023-04-10T13:23:25.834Z,19.34
2023-04-10T13:25:53.535Z,19.23
2023-04-10T13:28:21.532Z,19.25
2023-04-10T13:30:49.280Z,19.35
2023-04-10T13:33:16.956Z,19.31
2023-04-10T13:35:44.749Z,19.35
2023-04-10T13:38:13.716Z,19.59
2023-04-10T13:40:41.304Z,19.60
2023-04-10T13:43:09.283Z,19.46
2023-04-10T13:45:36.917Z,19.54
2023-04-10T13:48:07.114Z,19.80
2023-04-10T13:50:34.945Z,19.68
2023-04-10T13:53:02.832Z,19.68
2023-04-10T13:55:31.769Z,19.62
2023-04-10T13:57:59.691Z,19.81
2023-04-10T14:00:27.772Z,19.96
2023-04-10T14:02:55.572Z,20.14
2023-04-10T14:05:23.341Z,20.03
2023-04-10T14:07:51.847Z,20.05
2023-04-10T14:10:20.240Z,20.02
2023-04-10T14:12:49.246Z,20.18
2023-04-10T14:15:16.885Z,20.00
2023-04-10T14:17:44.547Z,19.90
2023-04-10T14:20:13.258Z,19.92
2023-04-10T14:22:41.057Z,20.04
2023-04-10T14:25:13.709Z,20.13
2023-04-10T14:27:41.625Z,20.30
2023-04-10T14:30:11.297Z,20.17
2023-04-10T14:32:40.192Z,20.14
2023-04-10T14:35:09.026Z,20.13
2023-04-10T14:37:36.668Z,19.93
2023-04-10T14:40:05.634Z,19.71
2023-04-10T14:42:33.257Z,19.68
2023-04-10T14:45:00.965Z,19.49
2023-04-10T14:47:29.997Z,19.34
2023-04-10T14:49:57.696Z,19.08
2023-04-10T14:52:25.396Z,19.07
2023-04-10T14:54:53.180Z,19.05
2023-04-10T14:57:20.810Z,19.06
2023-04-10T14:59:48.462Z,19.23
2023-04-10T15:02:16.106Z,19.26
2023-04-10T15:04:45.117Z,19.38
2023-04-10T15:07:14.596Z,19.45
2023-04-10T15:09:43.744Z,19.64
2023-04-10T15:12:11.416Z,19.61
2023-04-10T15:14:38.976Z,19.58
2023-04-10T15:17:06.596Z,19.49
2023-04-10T15:19:34.236Z,19.44
2023-04-10T15:22:03.489Z,19.35
2023-04-10T15:24:37.025Z,19.44
2023-04-10T15:27:11.024Z,19.47
2023-04-10T15:29:39.870Z,19.46
2023-04-10T15:32:07.948Z,19.41
2023-04-10T15:34:35.550Z,19.45
2023-04-10T15:37:04.626Z,19.29
2023-04-10T15:39:32.224Z,19.15
2023-04-10T15:42:00.253Z,19.08
2023-04-10T15:44:27.966Z,18.98
2023-04-10T15:46:55.590Z,18.79
2023-04-10T15:49:33.726Z,18.68
2023-04-10T15:52:06.789Z,18.51
2023-04-10T15:54:35.079Z,18.32
2023-04-10T15:57:02.990Z,18.00
2023-04-10T15:59:30.757Z,17.88
2023-04-10T16:01:58.441Z,17.72
2023-04-10T16:04:26.269Z,17.61
2023-04-10T16:06:55.949Z,17.56
2023-04-10T16:09:26.463Z,17.49
2023-04-10T16:11:54.864Z,17.47
2023-04-10T16:14:23.365Z,17.47
2023-04-10T16:16:51.247Z,17.39
2023-04-10T16:19:18.885Z,17.42
2023-04-10T16:21:46.872Z,17.32
2023-04-10T16:24:14.908Z,17.34
2023-04-10T16:26:43.904Z,17.32
2023-04-10T16:29:11.542Z,17.25
2023-04-10T16:31:39.204Z,17.10
2023-04-10T16:34:07.300Z,17.00
2023-04-10T16:36:34.927Z,16.93
2023-04-10T16:39:02.553Z,16.77
2023-04-10T16:41:30.181Z,16.77
2023-04-10T16:43:59.163Z,16.72
2023-04-10T16:46:27.153Z,16.66
2023-04-10T16:48:55.191Z,16.68
2023-04-10T16:51:24.340Z,16.61
2023-04-10T16:53:52.090Z,16.53
2023-04-10T16:56:19.681Z,16.47
2023-04-10T16:58:47.398Z,16.45
2023-04-10T17:01:19.230Z,16.36
2023-04-10T17:03:48.250Z,16.31
2023-04-10T17:06:16.568Z,16.21
2023-04-10T17:08:44.466Z,16.21
2023-04-10T17:11:13.408Z,16.21
2023-04-10T17:13:41.339Z,16.18
2023-04-10T17:16:10.569Z,16.13
2023-04-10T17:18:39.708Z,16.11
2023-04-10T17:21:11.514Z,16.10
2023-04-10T17:23:40.040Z,16.05
2023-04-10T17:26:13.001Z,16.01
2023-04-10T17:28:40.832Z,15.95
2023-04-10T17:31:08.972Z,15.90
2023-04-10T17:33:36.669Z,15.82
2023-04-10T17:36:06.119Z,15.79
2023-04-10T17:38:33.736Z,15.71
2023-04-10T17:41:01.377Z,15.69
2023-04-10T17:43:29.018Z,15.65
2023-04-10T17:45:56.636Z,15.64
2023-04-10T17:48:24.444Z,15.58
2023-04-10T17:50:52.483Z,15.50
2023-04-10T17:53:21.543Z,15.44
2023-04-10T17:55:49.162Z,15.38
2023-04-10T17:58:17.145Z,15.35
2023-04-10T18:00:44.705Z,15.29
2023-04-10T18:03:12.410Z,15.22
2023-04-10T18:05:40.166Z,15.18
2023-04-10T18:08:08.598Z,15.15
2023-04-10T18:10:37.719Z,15.09
2023-04-10T18:13:05.606Z,15.04
2023-04-10T18:15:33.533Z,15.02
2023-04-10T18:18:01.189Z,14.96
2023-04-10T18:20:28.905Z,14.94
2023-04-10T18:22:56.580Z,14.89
2023-04-10T18:25:24.197Z,14.87
2023-04-10T18:28:12.945Z,14.81
2023-04-10T18:30:40.902Z,14.79
2023-04-10T18:33:11.050Z,14.78
2023-04-10T18:35:39.253Z,14.74
2023-04-10T18:38:07.376Z,14.71
2023-04-10T18:40:36.647Z,14.68
2023-04-10T18:43:05.806Z,14.67
2023-04-10T18:45:34.209Z,14.65
2023-04-10T18:48:01.976Z,14.64
2023-04-10T18:50:29.916Z,14.61
2023-04-10T18:52:57.546Z,14.60
2023-04-10T18:55:25.379Z,14.58
2023-04-10T18:57:53.225Z,14.55
2023-04-10T19:00:22.581Z,14.55
2023-04-10T19:02:50.382Z,14.52
2023-04-10T19:05:18.246Z,14.53
2023-04-10T19:07:56.523Z,14.52
2023-04-10T19:10:29.085Z,14.49
2023-04-10T19:12:57.300Z,14.48
2023-04-10T19:15:26.434Z,14.47
2023-04-10T19:17:54.552Z,14.46
2023-04-10T19:20:48.868Z,14.42
2023-04-10T19:23:11.048Z,14.41
2023-04-10T19:25:38.646Z,14.34
2023-04-10T19:28:07.062Z,14.23
2023-04-10T19:30:36.025Z,14.14
2023-04-10T19:33:03.786Z,13.93
2023-04-10T19:35:31.524Z,13.81
2023-04-10T19:37:59.245Z,13.69
2023-04-10T19:40:26.927Z,13.34
2023-04-10T19:42:54.621Z,13.10
2023-04-10T19:45:23.646Z,12.78
2023-04-10T19:47:52.885Z,12.54
2023-04-10T19:50:20.809Z,12.31
2023-04-10T19:52:48.499Z,12.26
2023-04-10T19:55:18.697Z,12.20
2023-04-10T19:57:46.636Z,12.12
2023-04-10T20:00:15.006Z,12.07
2023-04-10T20:02:42.911Z,11.96
2023-04-10T20:05:12.187Z,11.92
2023-04-10T20:07:40.603Z,11.81
2023-04-10T20:10:09.409Z,11.65
2023-04-10T20:12:37.071Z,11.50
2023-04-10T20:15:05.982Z,11.41
2023-04-10T20:17:33.628Z,11.38
2023-04-10T20:20:01.323Z,11.38
2023-04-10T20:22:30.367Z,11.38
2023-04-10T20:24:58.411Z,11.35
2023-04-10T20:27:26.197Z,11.38
2023-04-10T20:29:53.786Z,11.37
2023-04-10T20:32:21.421Z,11.43
2023-04-10T20:34:49.030Z,11.44
2023-04-10T20:37:21.576Z,11.44
2023-04-10T20:39:50.688Z,11.48
2023-04-10T20:42:18.279Z,11.51
2023-04-10T20:44:45.872Z,11.54
2023-04-10T20:47:13.923Z,11.59
2023-04-10T20:49:41.609Z,11.61
2023-04-10T20:52:09.775Z,11.63
2023-04-10T20:54:37.436Z,11.65
2023-04-10T20:57:06.463Z,11.70
2023-04-10T20:59:35.957Z,11.74
2023-04-10T21:02:03.749Z,11.79
2023-04-10T21:04:32.617Z,11.82
2023-04-10T21:07:00.391Z,11.85
2023-04-10T21:09:28.108Z,11.92
2023-04-10T21:11:57.251Z,11.97
2023-04-10T21:14:26.223Z,11.99
2023-04-10T21:16:54.120Z,11.98
2023-04-10T21:19:21.791Z,11.99
2023-04-10T21:21:49.383Z,12.01
2023-04-10T21:24:17.059Z,12.05
2023-04-10T21:26:45.072Z,12.05
2023-04-10T21:29:12.691Z,12.05
2023-04-10T21:31:41.641Z,12.05
2023-04-10T21:34:10.233Z,12.04
2023-04-10T21:36:37.840Z,12.01
2023-04-10T21:39:09.076Z,12.00
2023-04-10T21:41:37.349Z,11.98
2023-04-10T21:44:05.193Z,11.98
2023-04-10T21:46:33.385Z,11.99
2023-04-10T21:49:02.967Z,11.97
2023-04-10T21:51:31.049Z,11.98
2023-04-10T21:53:58.737Z,11.94
2023-04-10T21:56:26.363Z,11.90
2023-04-10T21:58:54.416Z,11.87
2023-04-10T22:01:22.338Z,11.87
2023-04-10T22:03:50.584Z,11.81
2023-04-10T22:06:19.725Z,11.79
2023-04-10T22:08:47.329Z,11.65
2023-04-10T22:11:14.992Z,11.59
2023-04-10T22:13:42.622Z,11.52
2023-04-10T22:16:10.344Z,11.46
2023-04-10T22:18:37.967Z,11.38
2023-04-10T22:21:06.071Z,11.33
2023-04-10T22:23:35.047Z,11.27
2023-04-10T22:26:02.778Z,11.21
2023-04-10T22:28:30.384Z,11.17
2023-04-10T22:30:58.064Z,11.08
2023-04-10T22:33:25.805Z,10.99
2023-04-10T22:35:53.662Z,10.94
2023-04-10T22:38:21.316Z,10.91
2023-04-10T22:40:50.243Z,10.85
2023-04-10T22:43:17.812Z,10.78
2023-04-10T22:45:45.440Z,10.74
2023-04-10T22:48:13.115Z,10.70
2023-04-10T22:50:40.990Z,10.62
2023-04-10T22:53:09.991Z,10.61
2023-04-10T22:55:38.300Z,10.53
2023-04-10T22:58:07.262Z,10.49
2023-04-10T23:00:35.500Z,10.40
2023-04-10T23:03:03.612Z,10.38
2023-04-10T23:05:32.876Z,10.35
2023-04-10T23:08:00.582Z,10.30
2023-04-10T23:10:28.383Z,10.30
2023-04-10T23:12:55.979Z,10.26
2023-04-10T23:15:25.137Z,10.24
2023-04-10T23:17:52.847Z,10.17
2023-04-10T23:20:20.706Z,10.15
2023-04-10T23:22:48.691Z,10.09
2023-04-10T23:25:16.468Z,10.08
2023-04-10T23:27:44.117Z,10.05
2023-04-10T23:30:12.206Z,10.06
2023-04-10T23:32:41.265Z,10.00
2023-04-10T23:35:09.564Z,9.96
2023-04-10T23:37:37.271Z,10.00
2023-04-10T23:40:05.879Z,9.95
2023-04-10T23:42:33.498Z,9.95
2023-04-10T23:45:01.155Z,9.93
2023-04-10T23:47:28.876Z,9.95
2023-04-10T23:49:58.482Z,9.90
2023-04-10T23:52:26.200Z,9.92
2023-04-10T23:54:56.596Z,9.92
2023-04-10T23:57:24.262Z,9.92
2023-04-10T23:59:52.230Z,9.91
